Airfield :
LOGIN :

Register | Disclaimer

   EN    FR    IT 

 










Legend :    VFR   Marginal VFR   IFR   Intensive IFR   Very Intensive IFR
Visi :
Ceiling :
>= 8 km
>= 3000ft
5 to 8 km
1000 to 3000 ft
1500m to 5 km
500 to 1000 ft
800 to 1500m
200 to 500 ft
< 800m
< 200 ft
Symbols :   Thunderstorms  Fog  Heavy snow  Heavy precipitations  Wind > 20 kt
SIGMETs :     Misc.  Thunderstorms  Icing  Turbulence  Mountain Waves  Volcanic Ashes







- Airport Elevation : 505 ft
- IATA code : SXB
- Download approach charts


LFST - Strasbourg

CURRENT METAR :
  • 181600Z AUTO 22003KT 170V260 9999 -RA FEW038/// SCT100/// BKN130/// ///CB 23/17 Q1015 TEMPO VRB20G40KT 1500 TSRA

EXPIRED METARs :
  • 181530Z AUTO 31011KT 9999 -TSRA FEW038/// BKN086/// BKN110/// ///CB 22/15 Q1016 TEMPO VRB20G40KT 1500 TSRA
  • 181500Z AUTO 35012KT 9999 TS ///CB 24/15 Q1016 TEMPO VRB20G40KT 1500 TSRA
  • 181430Z AUTO 23011KT 9999 TS ///CB 29/16 Q1015 TEMPO VRB20G40KT 1500 TSRA
  • 181400Z AUTO 11003KT 050V210 9999 VCTS ///CB 30/15 Q1015 TEMPO SHRA
  • 181330Z AUTO 18004KT 100V240 9999 ///CB 30/15 Q1015 TEMPO SHRA
  • 181300Z AUTO 20004KT 110V240 CAVOK 30/15 Q1016 TEMPO FEW060CB

TAF AMD TAF LFST
Valid from the 18 at 13:00 until the 19 at 12:00 UTC


181348Z 1813/1912 18005KT CAVOK
TEMPO 1813/1823 FEW060CB
PROB40
TEMPO 1815/1820 VRB20G40KT 1500 TSRA SCT060CB
PROB30
TEMPO 1902/1907 1500 BCFG
PROB30
TEMPO 1910/1912 FEW070TCU
No reported NOTAMs for that airfield.
1 SIGMET reported for the Reims FIR (LFEE) :
 
Embedded thunderstorms
LFEE SIGMET 1 VALID 181450/181700 LFPW
LFEE REIMS FIR/UIR EMBD TS OBS WI N4700 E00430 - N4730 E00415 - N4830 E00545 - N4845 E00630 - N4700 E00430 TOP FL380 MOV NE 10KT NC=



MET'MAP, your aeronautical weather chart ! - Copyright ORBIFLY December 2007 - Disclaimer

ORBIFLY MET'MAP TEAM :

Programming & Development : Alexandra Zaïnal
Concept & Development : Baudouin d'Aumeries
Co-Development & Prog : Marc-Olivier Méhu
Technical & hardware support : Manuel Goepfert

Contact : metmap@orbifly.com




SOURCES & CREDITS :

   NOAA